sensor_id;sensor_type;location;lat;lon;timestamp;temperature;humidity
4002;DHT22;2015;48.670;9.060;2024-01-07T00:00:05;4.40;99.90
4002;DHT22;2015;48.670;9.060;2024-01-07T00:02:37;4.40;99.90
4002;DHT22;2015;48.670;9.060;2024-01-07T00:05:09;4.40;99.90
4002;DHT22;2015;48.670;9.060;2024-01-07T00:07:40;4.40;99.90
4002;DHT22;2015;48.670;9.060;2024-01-07T00:10:12;4.40;99.90
4002;DHT22;2015;48.670;9.060;2024-01-07T00:12:44;4.40;99.90
4002;DHT22;2015;48.670;9.060;2024-01-07T00:15:16;4.40;99.90
4002;DHT22;2015;48.670;9.060;2024-01-07T00:17:47;4.40;99.90
4002;DHT22;2015;48.670;9.060;2024-01-07T00:20:19;4.40;99.90
4002;DHT22;2015;48.670;9.060;2024-01-07T00:22:51;4.30;99.90
4002;DHT22;2015;48.670;9.060;2024-01-07T00:25:23;4.40;99.90
4002;DHT22;2015;48.670;9.060;2024-01-07T00:27:55;4.30;99.90
4002;DHT22;2015;48.670;9.060;2024-01-07T00:30:27;4.30;99.90
4002;DHT22;2015;48.670;9.060;2024-01-07T00:32:59;4.30;99.90
4002;DHT22;2015;48.670;9.060;2024-01-07T00:35:30;4.40;99.90
4002;DHT22;2015;48.670;9.060;2024-01-07T00:38:02;4.40;99.90
4002;DHT22;2015;48.670;9.060;2024-01-07T00:40:34;4.40;99.90
4002;DHT22;2015;48.670;9.060;2024-01-07T00:43:06;4.40;99.90
4002;DHT22;2015;48.670;9.060;2024-01-07T00:45:37;4.40;99.90
4002;DHT22;2015;48.670;9.060;2024-01-07T00:48:09;4.40;99.90
4002;DHT22;2015;48.670;9.060;2024-01-07T00:50:42;4.40;99.90
4002;DHT22;2015;48.670;9.060;2024-01-07T00:53:13;4.40;99.90
4002;DHT22;2015;48.670;9.060;2024-01-07T00:55:45;4.40;99.90
4002;DHT22;2015;48.670;9.060;2024-01-07T00:58:17;4.40;99.90
4002;DHT22;2015;48.670;9.060;2024-01-07T01:00:48;4.40;99.90
4002;DHT22;2015;48.670;9.060;2024-01-07T01:03:20;4.40;99.90
4002;DHT22;2015;48.670;9.060;2024-01-07T01:05:52;4.50;99.90
4002;DHT22;2015;48.670;9.060;2024-01-07T01:08:24;4.50;99.90
4002;DHT22;2015;48.670;9.060;2024-01-07T01:10:56;4.50;99.90
4002;DHT22;2015;48.670;9.060;2024-01-07T01:13:27;4.50;99.90
4002;DHT22;2015;48.670;9.060;2024-01-07T01:15:59;4.40;99.90
4002;DHT22;2015;48.670;9.060;2024-01-07T01:18:31;4.50;99.90
4002;DHT22;2015;48.670;9.060;2024-01-07T01:21:03;4.40;99.90
4002;DHT22;2015;48.670;9.060;2024-01-07T01:23:35;4.40;99.90
4002;DHT22;2015;48.670;9.060;2024-01-07T01:26:07;4.40;99.90
4002;DHT22;2015;48.670;9.060;2024-01-07T01:28:38;4.40;99.90
4002;DHT22;2015;48.670;9.060;2024-01-07T01:31:13;4.40;99.90
4002;DHT22;2015;48.670;9.060;2024-01-07T01:33:46;4.40;99.90
4002;DHT22;2015;48.670;9.060;2024-01-07T01:36:18;4.40;99.90
4002;DHT22;2015;48.670;9.060;2024-01-07T01:38:49;4.40;99.90
4002;DHT22;2015;48.670;9.060;2024-01-07T01:41:21;4.50;99.90
4002;DHT22;2015;48.670;9.060;2024-01-07T01:43:57;4.50;99.90
4002;DHT22;2015;48.670;9.060;2024-01-07T01:46:29;4.40;99.90
4002;DHT22;2015;48.670;9.060;2024-01-07T01:49:01;4.40;99.90
4002;DHT22;2015;48.670;9.060;2024-01-07T01:51:34;4.30;99.90
4002;DHT22;2015;48.670;9.060;2024-01-07T01:54:07;4.30;99.90
4002;DHT22;2015;48.670;9.060;2024-01-07T01:56:39;4.30;99.90
4002;DHT22;2015;48.670;9.060;2024-01-07T01:59:11;4.40;99.90
4002;DHT22;2015;48.670;9.060;2024-01-07T02:01:43;4.40;99.90
4002;DHT22;2015;48.670;9.060;2024-01-07T02:04:16;4.40;99.90
4002;DHT22;2015;48.670;9.060;2024-01-07T02:06:48;4.40;99.90
4002;DHT22;2015;48.670;9.060;2024-01-07T02:09:20;4.40;99.90
4002;DHT22;2015;48.670;9.060;2024-01-07T02:12:04;4.40;99.90
4002;DHT22;2015;48.670;9.060;2024-01-07T02:14:36;4.30;99.90
4002;DHT22;2015;48.670;9.060;2024-01-07T02:17:08;4.30;99.90
4002;DHT22;2015;48.670;9.060;2024-01-07T02:19:39;4.30;99.90
4002;DHT22;2015;48.670;9.060;2024-01-07T02:22:11;4.30;99.90
4002;DHT22;2015;48.670;9.060;2024-01-07T02:24:43;4.30;99.90
4002;DHT22;2015;48.670;9.060;2024-01-07T02:27:15;4.30;99.90
4002;DHT22;2015;48.670;9.060;2024-01-07T02:29:46;4.30;99.90
4002;DHT22;2015;48.670;9.060;2024-01-07T02:32:18;4.20;99.90
4002;DHT22;2015;48.670;9.060;2024-01-07T02:34:50;4.20;99.90
4002;DHT22;2015;48.670;9.060;2024-01-07T02:37:22;4.20;99.90
4002;DHT22;2015;48.670;9.060;2024-01-07T02:39:53;4.10;99.90
4002;DHT22;2015;48.670;9.060;2024-01-07T02:42:32;4.20;99.90
4002;DHT22;2015;48.670;9.060;2024-01-07T02:45:04;4.20;99.90
4002;DHT22;2015;48.670;9.060;2024-01-07T02:47:36;4.20;99.90
4002;DHT22;2015;48.670;9.060;2024-01-07T02:50:07;4.20;99.90
4002;DHT22;2015;48.670;9.060;2024-01-07T02:52:39;4.10;99.90
4002;DHT22;2015;48.670;9.060;2024-01-07T02:55:11;4.10;99.90
4002;DHT22;2015;48.670;9.060;2024-01-07T02:57:43;4.10;99.90
4002;DHT22;2015;48.670;9.060;2024-01-07T03:00:15;4.10;99.90
4002;DHT22;2015;48.670;9.060;2024-01-07T03:02:46;4.10;99.90
4002;DHT22;2015;48.670;9.060;2024-01-07T03:05:18;4.10;99.90
4002;DHT22;2015;48.670;9.060;2024-01-07T03:07:50;4.10;99.90
4002;DHT22;2015;48.670;9.060;2024-01-07T03:10:22;4.10;99.90
4002;DHT22;2015;48.670;9.060;2024-01-07T03:12:54;4.20;99.90
4002;DHT22;2015;48.670;9.060;2024-01-07T03:15:25;4.10;99.90
4002;DHT22;2015;48.670;9.060;2024-01-07T03:17:57;4.20;99.90
4002;DHT22;2015;48.670;9.060;2024-01-07T03:20:29;4.20;99.90
4002;DHT22;2015;48.670;9.060;2024-01-07T03:23:01;4.10;99.90
4002;DHT22;2015;48.670;9.060;2024-01-07T03:25:32;4.10;99.90
4002;DHT22;2015;48.670;9.060;2024-01-07T03:28:05;4.10;99.90
4002;DHT22;2015;48.670;9.060;2024-01-07T03:30:37;4.10;99.90
4002;DHT22;2015;48.670;9.060;2024-01-07T03:33:09;4.00;99.90
4002;DHT22;2015;48.670;9.060;2024-01-07T03:35:40;4.00;99.90
4002;DHT22;2015;48.670;9.060;2024-01-07T03:38:12;4.00;99.90
4002;DHT22;2015;48.670;9.060;2024-01-07T03:40:44;4.10;99.90
4002;DHT22;2015;48.670;9.060;2024-01-07T03:43:16;4.00;99.90
4002;DHT22;2015;48.670;9.060;2024-01-07T03:45:48;4.10;99.90
4002;DHT22;2015;48.670;9.060;2024-01-07T03:48:21;4.00;99.90
4002;DHT22;2015;48.670;9.060;2024-01-07T03:50:53;4.10;99.90
4002;DHT22;2015;48.670;9.060;2024-01-07T03:53:24;4.00;99.90
4002;DHT22;2015;48.670;9.060;2024-01-07T03:55:56;4.10;99.90
4002;DHT22;2015;48.670;9.060;2024-01-07T03:58:28;4.10;99.90
4002;DHT22;2015;48.670;9.060;2024-01-07T04:00:59;4.10;99.90
4002;DHT22;2015;48.670;9.060;2024-01-07T04:03:32;4.10;99.90
4002;DHT22;2015;48.670;9.060;2024-01-07T04:06:06;4.10;99.90
4002;DHT22;2015;48.670;9.060;2024-01-07T04:08:39;4.10;99.90
4002;DHT22;2015;48.670;9.060;2024-01-07T04:11:11;4.00;99.90
4002;DHT22;2015;48.670;9.060;2024-01-07T04:13:42;4.00;99.90
4002;DHT22;2015;48.670;9.060;2024-01-07T04:16:18;4.00;99.90
4002;DHT22;2015;48.670;9.060;2024-01-07T04:18:50;4.00;99.90
4002;DHT22;2015;48.670;9.060;2024-01-07T04:21:25;4.00;99.90
4002;DHT22;2015;48.670;9.060;2024-01-07T04:23:56;4.00;99.90
4002;DHT22;2015;48.670;9.060;2024-01-07T04:26:29;4.00;99.90
4002;DHT22;2015;48.670;9.060;2024-01-07T04:29:00;4.00;99.90
4002;DHT22;2015;48.670;9.060;2024-01-07T04:31:32;3.90;99.90
4002;DHT22;2015;48.670;9.060;2024-01-07T04:34:04;3.90;99.90
4002;DHT22;2015;48.670;9.060;2024-01-07T04:36:36;3.90;99.90
4002;DHT22;2015;48.670;9.060;2024-01-07T04:39:08;3.80;99.90
4002;DHT22;2015;48.670;9.060;2024-01-07T04:41:41;3.80;99.90
4002;DHT22;2015;48.670;9.060;2024-01-07T04:44:14;3.80;99.90
4002;DHT22;2015;48.670;9.060;2024-01-07T04:46:47;3.80;99.90
4002;DHT22;2015;48.670;9.060;2024-01-07T04:49:20;3.80;99.90
4002;DHT22;2015;48.670;9.060;2024-01-07T04:51:52;3.70;99.90
4002;DHT22;2015;48.670;9.060;2024-01-07T04:54:23;3.70;99.90
4002;DHT22;2015;48.670;9.060;2024-01-07T04:56:55;3.70;99.90
4002;DHT22;2015;48.670;9.060;2024-01-07T04:59:27;3.70;99.90
4002;DHT22;2015;48.670;9.060;2024-01-07T05:01:59;3.70;99.90
4002;DHT22;2015;48.670;9.060;2024-01-07T05:04:32;3.80;99.90
4002;DHT22;2015;48.670;9.060;2024-01-07T05:07:04;3.70;99.90
4002;DHT22;2015;48.670;9.060;2024-01-07T05:09:35;3.70;99.90
4002;DHT22;2015;48.670;9.060;2024-01-07T05:12:07;3.70;99.90
4002;DHT22;2015;48.670;9.060;2024-01-07T05:14:40;3.70;99.90
4002;DHT22;2015;48.670;9.060;2024-01-07T05:17:11;3.70;99.90
4002;DHT22;2015;48.670;9.060;2024-01-07T05:19:43;3.70;99.90
4002;DHT22;2015;48.670;9.060;2024-01-07T05:22:15;3.80;99.90
4002;DHT22;2015;48.670;9.060;2024-01-07T05:24:47;3.70;99.90
4002;DHT22;2015;48.670;9.060;2024-01-07T05:27:19;3.70;99.90
4002;DHT22;2015;48.670;9.060;2024-01-07T05:29:51;3.70;99.90
4002;DHT22;2015;48.670;9.060;2024-01-07T05:32:22;3.70;99.90
4002;DHT22;2015;48.670;9.060;2024-01-07T05:34:54;3.70;99.90
4002;DHT22;2015;48.670;9.060;2024-01-07T05:37:26;3.70;99.90
4002;DHT22;2015;48.670;9.060;2024-01-07T05:39:58;3.70;99.90
4002;DHT22;2015;48.670;9.060;2024-01-07T05:42:29;3.70;99.90
4002;DHT22;2015;48.670;9.060;2024-01-07T05:45:01;3.70;99.90
4002;DHT22;2015;48.670;9.060;2024-01-07T05:47:34;3.70;99.90
4002;DHT22;2015;48.670;9.060;2024-01-07T05:50:07;3.70;99.90
4002;DHT22;2015;48.670;9.060;2024-01-07T05:52:38;3.70;99.90
4002;DHT22;2015;48.670;9.060;2024-01-07T05:55:10;3.70;99.90
4002;DHT22;2015;48.670;9.060;2024-01-07T05:57:43;3.60;99.90
4002;DHT22;2015;48.670;9.060;2024-01-07T06:00:15;3.60;99.90
4002;DHT22;2015;48.670;9.060;2024-01-07T06:02:47;3.70;99.90
4002;DHT22;2015;48.670;9.060;2024-01-07T06:05:18;3.70;99.90
4002;DHT22;2015;48.670;9.060;2024-01-07T06:07:50;3.60;99.90
4002;DHT22;2015;48.670;9.060;2024-01-07T06:10:22;3.70;99.90
4002;DHT22;2015;48.670;9.060;2024-01-07T06:12:54;3.70;99.90
4002;DHT22;2015;48.670;9.060;2024-01-07T06:15:25;3.60;99.90
4002;DHT22;2015;48.670;9.060;2024-01-07T06:17:57;3.60;99.90
4002;DHT22;2015;48.670;9.060;2024-01-07T06:20:29;3.60;99.90
4002;DHT22;2015;48.670;9.060;2024-01-07T06:23:00;3.70;99.90
4002;DHT22;2015;48.670;9.060;2024-01-07T06:25:32;3.70;99.90
4002;DHT22;2015;48.670;9.060;2024-01-07T06:28:04;3.70;99.90
4002;DHT22;2015;48.670;9.060;2024-01-07T06:30:36;3.70;99.90
4002;DHT22;2015;48.670;9.060;2024-01-07T06:33:08;3.70;99.90
4002;DHT22;2015;48.670;9.060;2024-01-07T06:35:40;3.70;99.90
4002;DHT22;2015;48.670;9.060;2024-01-07T06:38:12;3.60;99.90
4002;DHT22;2015;48.670;9.060;2024-01-07T06:40:44;3.60;99.90
4002;DHT22;2015;48.670;9.060;2024-01-07T06:43:15;3.60;99.90
4002;DHT22;2015;48.670;9.060;2024-01-07T06:45:47;3.60;99.90
4002;DHT22;2015;48.670;9.060;2024-01-07T06:48:19;3.60;99.90
4002;DHT22;2015;48.670;9.060;2024-01-07T06:50:50;3.60;99.90
4002;DHT22;2015;48.670;9.060;2024-01-07T06:53:22;3.60;99.90
4002;DHT22;2015;48.670;9.060;2024-01-07T06:55:54;3.60;99.90
4002;DHT22;2015;48.670;9.060;2024-01-07T06:58:26;3.60;99.90
4002;DHT22;2015;48.670;9.060;2024-01-07T07:00:57;3.60;99.90
4002;DHT22;2015;48.670;9.060;2024-01-07T07:03:29;3.60;99.90
4002;DHT22;2015;48.670;9.060;2024-01-07T07:06:01;3.50;99.90
4002;DHT22;2015;48.670;9.060;2024-01-07T07:08:33;3.50;99.90
4002;DHT22;2015;48.670;9.060;2024-01-07T07:11:05;3.60;99.90
4002;DHT22;2015;48.670;9.060;2024-01-07T07:13:37;3.50;99.90
4002;DHT22;2015;48.670;9.060;2024-01-07T07:16:09;3.50;99.90
4002;DHT22;2015;48.670;9.060;2024-01-07T07:18:41;3.50;99.90
4002;DHT22;2015;48.670;9.060;2024-01-07T07:21:13;3.50;99.90
4002;DHT22;2015;48.670;9.060;2024-01-07T07:23:45;3.50;99.90
4002;DHT22;2015;48.670;9.060;2024-01-07T07:26:17;3.50;99.90
4002;DHT22;2015;48.670;9.060;2024-01-07T07:28:48;3.50;99.90
4002;DHT22;2015;48.670;9.060;2024-01-07T07:31:20;3.50;99.90
4002;DHT22;2015;48.670;9.060;2024-01-07T07:33:52;3.50;99.90
4002;DHT22;2015;48.670;9.060;2024-01-07T07:36:24;3.50;99.90
4002;DHT22;2015;48.670;9.060;2024-01-07T07:38:56;3.50;99.90
4002;DHT22;2015;48.670;9.060;2024-01-07T07:41:27;3.40;99.90
4002;DHT22;2015;48.670;9.060;2024-01-07T07:44:00;3.40;99.90
4002;DHT22;2015;48.670;9.060;2024-01-07T07:46:31;3.30;99.90
4002;DHT22;2015;48.670;9.060;2024-01-07T07:49:03;3.30;99.90
4002;DHT22;2015;48.670;9.060;2024-01-07T07:51:35;3.30;99.90
4002;DHT22;2015;48.670;9.060;2024-01-07T07:54:07;3.30;99.90
4002;DHT22;2015;48.670;9.060;2024-01-07T07:56:38;3.30;99.90
4002;DHT22;2015;48.670;9.060;2024-01-07T07:59:10;3.30;99.90
4002;DHT22;2015;48.670;9.060;2024-01-07T08:01:42;3.30;99.90
4002;DHT22;2015;48.670;9.060;2024-01-07T08:04:14;3.30;99.90
4002;DHT22;2015;48.670;9.060;2024-01-07T08:06:46;3.20;99.90
4002;DHT22;2015;48.670;9.060;2024-01-07T08:09:18;3.20;99.90
4002;DHT22;2015;48.670;9.060;2024-01-07T08:11:49;3.10;99.90
4002;DHT22;2015;48.670;9.060;2024-01-07T08:14:21;3.10;99.90
4002;DHT22;2015;48.670;9.060;2024-01-07T08:16:53;3.00;99.90
4002;DHT22;2015;48.670;9.060;2024-01-07T08:19:24;3.00;99.90
4002;DHT22;2015;48.670;9.060;2024-01-07T08:21:56;2.90;99.90
4002;DHT22;2015;48.670;9.060;2024-01-07T08:24:28;3.00;99.90
4002;DHT22;2015;48.670;9.060;2024-01-07T08:27:00;2.90;99.90
4002;DHT22;2015;48.670;9.060;2024-01-07T08:29:32;2.90;99.90
4002;DHT22;2015;48.670;9.060;2024-01-07T08:32:04;2.90;99.90
4002;DHT22;2015;48.670;9.060;2024-01-07T08:34:38;2.90;99.90
4002;DHT22;2015;48.670;9.060;2024-01-07T08:37:10;2.90;99.90
4002;DHT22;2015;48.670;9.060;2024-01-07T08:39:42;2.90;99.90
4002;DHT22;2015;48.670;9.060;2024-01-07T08:42:14;2.90;99.90
4002;DHT22;2015;48.670;9.060;2024-01-07T08:44:46;2.90;99.90
4002;DHT22;2015;48.670;9.060;2024-01-07T08:47:18;2.90;99.90
4002;DHT22;2015;48.670;9.060;2024-01-07T08:49:50;2.90;99.90
4002;DHT22;2015;48.670;9.060;2024-01-07T08:52:25;2.90;99.90
4002;DHT22;2015;48.670;9.060;2024-01-07T08:54:56;2.80;99.90
4002;DHT22;2015;48.670;9.060;2024-01-07T08:57:28;2.90;99.90
4002;DHT22;2015;48.670;9.060;2024-01-07T09:00:00;2.80;99.90
4002;DHT22;2015;48.670;9.060;2024-01-07T09:02:32;2.80;99.90
4002;DHT22;2015;48.670;9.060;2024-01-07T09:05:03;2.80;99.90
4002;DHT22;2015;48.670;9.060;2024-01-07T09:07:35;2.80;99.90
4002;DHT22;2015;48.670;9.060;2024-01-07T09:10:07;2.90;99.90
4002;DHT22;2015;48.670;9.060;2024-01-07T09:12:43;2.90;99.90
4002;DHT22;2015;48.670;9.060;2024-01-07T09:15:18;2.90;99.90
4002;DHT22;2015;48.670;9.060;2024-01-07T09:17:50;3.00;99.90
4002;DHT22;2015;48.670;9.060;2024-01-07T09:20:23;2.90;99.90
4002;DHT22;2015;48.670;9.060;2024-01-07T09:22:54;2.90;99.90
4002;DHT22;2015;48.670;9.060;2024-01-07T09:25:26;2.80;99.90
4002;DHT22;2015;48.670;9.060;2024-01-07T09:27:58;2.90;99.90
4002;DHT22;2015;48.670;9.060;2024-01-07T09:30:30;2.90;99.90
4002;DHT22;2015;48.670;9.060;2024-01-07T09:33:02;2.90;99.90
4002;DHT22;2015;48.670;9.060;2024-01-07T09:35:34;2.90;99.90
4002;DHT22;2015;48.670;9.060;2024-01-07T09:38:06;2.90;99.90
4002;DHT22;2015;48.670;9.060;2024-01-07T09:40:43;2.90;99.90
4002;DHT22;2015;48.670;9.060;2024-01-07T09:43:15;2.80;99.90
4002;DHT22;2015;48.670;9.060;2024-01-07T09:45:47;2.80;99.90
4002;DHT22;2015;48.670;9.060;2024-01-07T09:48:20;2.80;99.90
4002;DHT22;2015;48.670;9.060;2024-01-07T09:50:52;2.80;99.90
4002;DHT22;2015;48.670;9.060;2024-01-07T09:53:25;2.90;99.90
4002;DHT22;2015;48.670;9.060;2024-01-07T09:58:45;3.00;99.90
4002;DHT22;2015;48.670;9.060;2024-01-07T10:01:19;3.00;99.90
4002;DHT22;2015;48.670;9.060;2024-01-07T10:03:52;3.00;99.90
4002;DHT22;2015;48.670;9.060;2024-01-07T10:06:24;3.00;99.90
4002;DHT22;2015;48.670;9.060;2024-01-07T10:08:56;3.10;99.90
4002;DHT22;2015;48.670;9.060;2024-01-07T10:11:29;3.10;99.90
4002;DHT22;2015;48.670;9.060;2024-01-07T10:14:01;3.00;99.90
4002;DHT22;2015;48.670;9.060;2024-01-07T10:16:34;3.00;99.90
4002;DHT22;2015;48.670;9.060;2024-01-07T10:19:06;3.10;99.90
4002;DHT22;2015;48.670;9.060;2024-01-07T10:21:39;3.20;99.90
4002;DHT22;2015;48.670;9.060;2024-01-07T10:24:11;3.10;99.90
4002;DHT22;2015;48.670;9.060;2024-01-07T10:26:43;3.10;99.90
4002;DHT22;2015;48.670;9.060;2024-01-07T10:29:15;3.20;99.90
4002;DHT22;2015;48.670;9.060;2024-01-07T10:31:47;3.20;99.90
4002;DHT22;2015;48.670;9.060;2024-01-07T10:34:21;3.20;99.90
4002;DHT22;2015;48.670;9.060;2024-01-07T10:36:56;3.20;99.90
4002;DHT22;2015;48.670;9.060;2024-01-07T10:39:30;3.20;99.90
4002;DHT22;2015;48.670;9.060;2024-01-07T10:42:02;3.20;99.90
4002;DHT22;2015;48.670;9.060;2024-01-07T10:44:34;3.20;99.90
4002;DHT22;2015;48.670;9.060;2024-01-07T10:47:10;3.10;99.90
4002;DHT22;2015;48.670;9.060;2024-01-07T10:49:44;3.00;99.90
4002;DHT22;2015;48.670;9.060;2024-01-07T10:52:16;2.90;99.90
4002;DHT22;2015;48.670;9.060;2024-01-07T10:54:49;2.90;99.90
4002;DHT22;2015;48.670;9.060;2024-01-07T11:00:08;2.90;99.90
4002;DHT22;2015;48.670;9.060;2024-01-07T11:08:19;2.70;99.90
4002;DHT22;2015;48.670;9.060;2024-01-07T11:11:18;2.70;99.90
4002;DHT22;2015;48.670;9.060;2024-01-07T11:13:50;2.70;99.90
4002;DHT22;2015;48.670;9.060;2024-01-07T11:16:41;2.60;99.90
4002;DHT22;2015;48.670;9.060;2024-01-07T11:19:13;2.50;99.90
4002;DHT22;2015;48.670;9.060;2024-01-07T11:21:46;2.60;99.90
4002;DHT22;2015;48.670;9.060;2024-01-07T11:24:40;2.60;99.90
4002;DHT22;2015;48.670;9.060;2024-01-07T11:27:12;2.60;99.90
4002;DHT22;2015;48.670;9.060;2024-01-07T11:29:52;2.50;99.90
4002;DHT22;2015;48.670;9.060;2024-01-07T11:32:28;2.40;99.90
4002;DHT22;2015;48.670;9.060;2024-01-07T11:35:01;2.30;99.90
4002;DHT22;2015;48.670;9.060;2024-01-07T11:37:34;2.30;99.90
4002;DHT22;2015;48.670;9.060;2024-01-07T11:40:08;2.20;99.90
4002;DHT22;2015;48.670;9.060;2024-01-07T11:42:40;2.20;99.90
4002;DHT22;2015;48.670;9.060;2024-01-07T11:45:12;2.30;99.90
4002;DHT22;2015;48.670;9.060;2024-01-07T11:47:43;2.30;99.90
4002;DHT22;2015;48.670;9.060;2024-01-07T11:50:15;2.30;99.90
4002;DHT22;2015;48.670;9.060;2024-01-07T11:52:47;2.30;99.90
4002;DHT22;2015;48.670;9.060;2024-01-07T11:55:19;2.30;99.90
4002;DHT22;2015;48.670;9.060;2024-01-07T11:57:52;2.30;99.90
4002;DHT22;2015;48.670;9.060;2024-01-07T12:00:24;2.40;99.90
4002;DHT22;2015;48.670;9.060;2024-01-07T12:02:57;2.40;99.90
4002;DHT22;2015;48.670;9.060;2024-01-07T12:05:29;2.40;99.90
4002;DHT22;2015;48.670;9.060;2024-01-07T12:08:01;2.40;99.90
4002;DHT22;2015;48.670;9.060;2024-01-07T12:10:34;2.40;99.90
4002;DHT22;2015;48.670;9.060;2024-01-07T12:13:06;2.40;99.90
4002;DHT22;2015;48.670;9.060;2024-01-07T12:15:40;2.40;99.90
4002;DHT22;2015;48.670;9.060;2024-01-07T12:18:12;2.40;99.90
4002;DHT22;2015;48.670;9.060;2024-01-07T12:20:55;2.40;99.90
4002;DHT22;2015;48.670;9.060;2024-01-07T12:23:27;2.30;99.90
4002;DHT22;2015;48.670;9.060;2024-01-07T12:26:07;2.20;99.90
4002;DHT22;2015;48.670;9.060;2024-01-07T12:28:40;2.30;99.90
4002;DHT22;2015;48.670;9.060;2024-01-07T12:31:12;2.20;99.90
4002;DHT22;2015;48.670;9.060;2024-01-07T12:33:44;2.20;99.90
4002;DHT22;2015;48.670;9.060;2024-01-07T12:36:20;2.10;99.90
4002;DHT22;2015;48.670;9.060;2024-01-07T12:38:53;2.10;99.90
4002;DHT22;2015;48.670;9.060;2024-01-07T12:41:27;2.10;99.90
4002;DHT22;2015;48.670;9.060;2024-01-07T12:44:00;2.10;99.90
4002;DHT22;2015;48.670;9.060;2024-01-07T12:46:32;2.10;99.90
4002;DHT22;2015;48.670;9.060;2024-01-07T12:49:04;2.00;99.90
4002;DHT22;2015;48.670;9.060;2024-01-07T12:51:35;2.10;99.90
4002;DHT22;2015;48.670;9.060;2024-01-07T12:54:07;2.10;99.90
4002;DHT22;2015;48.670;9.060;2024-01-07T12:56:39;2.10;99.90
4002;DHT22;2015;48.670;9.060;2024-01-07T12:59:11;2.10;99.90
4002;DHT22;2015;48.670;9.060;2024-01-07T13:01:42;2.00;99.90
4002;DHT22;2015;48.670;9.060;2024-01-07T13:04:14;2.00;99.90
4002;DHT22;2015;48.670;9.060;2024-01-07T13:06:46;2.00;99.90
4002;DHT22;2015;48.670;9.060;2024-01-07T13:09:18;2.00;99.90
4002;DHT22;2015;48.670;9.060;2024-01-07T13:11:50;2.00;99.90
4002;DHT22;2015;48.670;9.060;2024-01-07T13:14:23;2.00;99.90
4002;DHT22;2015;48.670;9.060;2024-01-07T13:16:55;2.00;99.90
4002;DHT22;2015;48.670;9.060;2024-01-07T13:19:27;2.00;99.90
4002;DHT22;2015;48.670;9.060;2024-01-07T13:21:59;2.00;99.90
4002;DHT22;2015;48.670;9.060;2024-01-07T13:24:33;1.90;99.90
4002;DHT22;2015;48.670;9.060;2024-01-07T13:27:04;1.80;99.90
4002;DHT22;2015;48.670;9.060;2024-01-07T13:29:36;1.80;99.90
4002;DHT22;2015;48.670;9.060;2024-01-07T13:32:08;1.90;99.90
4002;DHT22;2015;48.670;9.060;2024-01-07T13:34:40;1.80;99.90
4002;DHT22;2015;48.670;9.060;2024-01-07T13:37:12;1.80;99.90
4002;DHT22;2015;48.670;9.060;2024-01-07T13:39:43;1.80;99.90
4002;DHT22;2015;48.670;9.060;2024-01-07T13:42:15;1.70;99.90
4002;DHT22;2015;48.670;9.060;2024-01-07T13:44:47;1.70;99.90
4002;DHT22;2015;48.670;9.060;2024-01-07T13:47:19;1.70;99.90
4002;DHT22;2015;48.670;9.060;2024-01-07T13:49:50;1.70;99.90
4002;DHT22;2015;48.670;9.060;2024-01-07T13:52:22;1.60;99.90
4002;DHT22;2015;48.670;9.060;2024-01-07T13:54:54;1.60;99.90
4002;DHT22;2015;48.670;9.060;2024-01-07T13:57:26;1.60;99.90
4002;DHT22;2015;48.670;9.060;2024-01-07T13:59:57;1.60;99.90
4002;DHT22;2015;48.670;9.060;2024-01-07T14:02:29;1.50;99.90
4002;DHT22;2015;48.670;9.060;2024-01-07T14:05:01;1.50;99.90
4002;DHT22;2015;48.670;9.060;2024-01-07T14:07:33;1.50;99.90
4002;DHT22;2015;48.670;9.060;2024-01-07T14:10:05;1.40;99.90
4002;DHT22;2015;48.670;9.060;2024-01-07T14:12:37;1.30;99.90
4002;DHT22;2015;48.670;9.060;2024-01-07T14:15:09;1.30;99.90
4002;DHT22;2015;48.670;9.060;2024-01-07T14:17:41;1.40;99.90
4002;DHT22;2015;48.670;9.060;2024-01-07T14:20:14;1.30;99.90
4002;DHT22;2015;48.670;9.060;2024-01-07T14:22:45;1.30;99.90
4002;DHT22;2015;48.670;9.060;2024-01-07T14:25:17;1.40;99.90
4002;DHT22;2015;48.670;9.060;2024-01-07T14:27:49;1.30;99.90
4002;DHT22;2015;48.670;9.060;2024-01-07T14:30:21;1.30;99.90
4002;DHT22;2015;48.670;9.060;2024-01-07T14:32:53;1.30;99.90
4002;DHT22;2015;48.670;9.060;2024-01-07T14:35:24;1.30;99.90
4002;DHT22;2015;48.670;9.060;2024-01-07T14:38:00;1.20;99.90
4002;DHT22;2015;48.670;9.060;2024-01-07T14:40:32;1.10;99.90
4002;DHT22;2015;48.670;9.060;2024-01-07T14:43:04;1.10;99.90
4002;DHT22;2015;48.670;9.060;2024-01-07T14:45:35;1.00;99.90
4002;DHT22;2015;48.670;9.060;2024-01-07T14:48:07;1.00;99.90
4002;DHT22;2015;48.670;9.060;2024-01-07T14:50:40;0.90;99.90
4002;DHT22;2015;48.670;9.060;2024-01-07T14:53:13;1.00;99.90
4002;DHT22;2015;48.670;9.060;2024-01-07T14:55:45;1.00;99.90
4002;DHT22;2015;48.670;9.060;2024-01-07T14:58:16;1.00;99.90
4002;DHT22;2015;48.670;9.060;2024-01-07T15:00:50;1.00;99.90
4002;DHT22;2015;48.670;9.060;2024-01-07T15:03:22;1.00;99.90
4002;DHT22;2015;48.670;9.060;2024-01-07T15:05:56;1.00;99.90
4002;DHT22;2015;48.670;9.060;2024-01-07T15:08:28;0.90;99.90
4002;DHT22;2015;48.670;9.060;2024-01-07T15:11:00;0.90;99.90
4002;DHT22;2015;48.670;9.060;2024-01-07T15:13:32;0.90;99.90
4002;DHT22;2015;48.670;9.060;2024-01-07T15:16:06;0.90;99.90
4002;DHT22;2015;48.670;9.060;2024-01-07T15:18:38;0.90;99.90
4002;DHT22;2015;48.670;9.060;2024-01-07T15:21:10;0.80;99.90
4002;DHT22;2015;48.670;9.060;2024-01-07T15:23:42;0.90;99.90
4002;DHT22;2015;48.670;9.060;2024-01-07T15:26:13;0.90;99.90
4002;DHT22;2015;48.670;9.060;2024-01-07T15:28:45;0.90;99.90
4002;DHT22;2015;48.670;9.060;2024-01-07T15:31:17;0.80;99.90
4002;DHT22;2015;48.670;9.060;2024-01-07T15:33:49;0.80;99.90
4002;DHT22;2015;48.670;9.060;2024-01-07T15:36:21;0.80;99.90
4002;DHT22;2015;48.670;9.060;2024-01-07T15:38:53;0.80;99.90
4002;DHT22;2015;48.670;9.060;2024-01-07T15:41:25;0.70;99.90
4002;DHT22;2015;48.670;9.060;2024-01-07T15:43:56;0.60;99.90
4002;DHT22;2015;48.670;9.060;2024-01-07T15:46:28;0.60;99.90
4002;DHT22;2015;48.670;9.060;2024-01-07T15:49:00;0.60;99.90
4002;DHT22;2015;48.670;9.060;2024-01-07T15:51:32;0.40;99.90
4002;DHT22;2015;48.670;9.060;2024-01-07T15:54:04;0.40;99.90
4002;DHT22;2015;48.670;9.060;2024-01-07T15:56:37;0.50;99.90
4002;DHT22;2015;48.670;9.060;2024-01-07T15:59:09;0.50;99.90
4002;DHT22;2015;48.670;9.060;2024-01-07T16:01:46;0.60;99.90
4002;DHT22;2015;48.670;9.060;2024-01-07T16:04:18;0.60;99.90
4002;DHT22;2015;48.670;9.060;2024-01-07T16:06:54;0.50;99.90
4002;DHT22;2015;48.670;9.060;2024-01-07T16:09:26;0.50;99.90
4002;DHT22;2015;48.670;9.060;2024-01-07T16:11:58;0.40;99.90
4002;DHT22;2015;48.670;9.060;2024-01-07T16:14:29;0.50;99.90
4002;DHT22;2015;48.670;9.060;2024-01-07T16:17:05;0.50;99.90
4002;DHT22;2015;48.670;9.060;2024-01-07T16:19:36;0.50;99.90
4002;DHT22;2015;48.670;9.060;2024-01-07T16:22:08;0.50;99.90
4002;DHT22;2015;48.670;9.060;2024-01-07T16:24:42;0.50;99.90
4002;DHT22;2015;48.670;9.060;2024-01-07T16:27:14;0.50;99.90
4002;DHT22;2015;48.670;9.060;2024-01-07T16:29:46;0.40;99.90
4002;DHT22;2015;48.670;9.060;2024-01-07T16:32:18;0.30;99.90
4002;DHT22;2015;48.670;9.060;2024-01-07T16:34:50;0.30;99.90
4002;DHT22;2015;48.670;9.060;2024-01-07T16:37:22;0.20;99.90
4002;DHT22;2015;48.670;9.060;2024-01-07T16:39:55;0.10;99.90
4002;DHT22;2015;48.670;9.060;2024-01-07T16:42:27;0.20;99.90
4002;DHT22;2015;48.670;9.060;2024-01-07T16:44:58;0.10;99.90
4002;DHT22;2015;48.670;9.060;2024-01-07T16:47:31;0.10;99.90
4002;DHT22;2015;48.670;9.060;2024-01-07T16:50:03;0.20;99.90
4002;DHT22;2015;48.670;9.060;2024-01-07T16:52:39;0.20;99.90
4002;DHT22;2015;48.670;9.060;2024-01-07T16:55:11;0.20;99.90
4002;DHT22;2015;48.670;9.060;2024-01-07T16:57:43;0.20;99.90
4002;DHT22;2015;48.670;9.060;2024-01-07T17:00:15;0.20;99.90